PWSweather.com
Personal Weather Stations
Station Observations
WISCHPK61
Green Bay Schmitt Park, Green Bay, WI 54311

Green Bay Schmitt ParkGreen Bay, WI 54311

Lat: 44.514277, Lon: -87.935067

Elevation: 735

Station Type: Acu Rite Pro Weather Center model 02032C

http://greenbayweathercam.com

High Low Average
Temperature 42.8°F6.0°C 17.6°F-8.0°C 25.0°F-3.9°C
Dew Point 42.6°F5.9°C 12.4°F-10.9°C 23.3°F-4.8°C
Winds Calm Calm Calm Calm Calm WSWCalm WSW
Wind Gusts -- -- --
Humidity 99% 64% 94%
Pressure 29.57 in1001.4 mb 29.42 in996.3 mb -
Precipitation 0.30 in7.6 mm - -
Hour Temp Dew Point Humidity Winds Wind Gusts Pressure Precip Precip Rate Daily Precip Total
12:00 AM 19.2°F-7.1°C 19.0°F-7.2°C 99% Calm Calm -- 29.44 in997.0 mb - 0.00 in0.0 mm 0.00 in0.0 mm
01:00 AM 18.9°F-7.3°C 15.1°F-9.4°C 85% Calm Calm -- 29.43 in996.6 mb - 0.00 in0.0 mm 0.00 in0.0 mm
02:00 AM 18.5°F-7.5°C 18.3°F-7.6°C 99% Calm Calm -- 29.44 in997.0 mb - 0.00 in0.0 mm 0.00 in0.0 mm
03:00 AM 18.3°F-7.6°C 18.1°F-7.7°C 99% Calm Calm -- 29.44 in997.0 mb - 0.00 in0.0 mm 0.00 in0.0 mm
04:00 AM 18.1°F-7.7°C 17.9°F-7.8°C 99% Calm Calm -- 29.43 in996.6 mb - 0.00 in0.0 mm 0.00 in0.0 mm
05:00 AM 18.1°F-7.7°C 17.9°F-7.8°C 99% Calm Calm -- 29.42 in996.3 mb - 0.00 in0.0 mm 0.00 in0.0 mm
06:00 AM 17.6°F-8.0°C 17.4°F-8.1°C 99% Calm Calm -- 29.43 in996.6 mb - 0.00 in0.0 mm 0.00 in0.0 mm
07:00 AM 18.0°F-7.8°C 17.8°F-7.9°C 99% Calm Calm -- 29.46 in997.6 mb - 0.00 in0.0 mm 0.00 in0.0 mm
08:00 AM 18.1°F-7.7°C 17.9°F-7.8°C 99% Calm Calm -- 29.50 in999.0 mb - 0.00 in0.0 mm 0.00 in0.0 mm
09:00 AM 19.8°F-6.8°C 18.6°F-7.4°C 95% Calm Calm -- 29.50 in999.0 mb - 0.00 in0.0 mm 0.00 in0.0 mm
10:00 AM 26.4°F-3.1°C 20.8°F-6.2°C 79% Calm Calm -- 29.52 in999.7 mb - 0.00 in0.0 mm 0.00 in0.0 mm
11:00 AM 26.7°F-2.9°C 26.5°F-3.1°C 99% Calm Calm -- 29.55 in1000.7 mb - 0.00 in0.0 mm 0.00 in0.0 mm
12:00 PM 33.0°F0.6°C 32.8°F0.4°C 99% Calm Calm -- 29.57 in1001.4 mb - 0.00 in0.0 mm 0.00 in0.0 mm
01:00 PM 35.0°F1.7°C 34.8°F1.6°C 99% Calm Calm -- 29.57 in1001.4 mb - 0.06 in1.5 mm 0.06 in1.5 mm
02:00 PM 42.8°F6.0°C 42.6°F5.9°C 99% Calm Calm -- 29.54 in1000.3 mb - 0.06 in1.5 mm 0.12 in3.0 mm
03:00 PM 41.3°F5.2°C 41.0°F5.0°C 99% Calm Calm -- 29.55 in1000.7 mb - 0.08 in2.0 mm 0.20 in5.1 mm
04:00 PM 36.2°F2.3°C 35.9°F2.2°C 99% Calm Calm -- 29.54 in1000.3 mb - 0.07 in1.8 mm 0.27 in6.9 mm
05:00 PM 29.1°F-1.6°C 20.5°F-6.4°C 70% Calm Calm -- 29.54 in1000.3 mb - 0.03 in0.8 mm 0.30 in7.6 mm
06:00 PM 27.9°F-2.3°C 27.7°F-2.4°C 99% Calm Calm -- 29.52 in999.7 mb - 0.00 in0.0 mm 0.30 in7.6 mm
07:00 PM 24.6°F-4.1°C 24.4°F-4.2°C 99% Calm Calm -- 29.52 in999.7 mb - 0.00 in0.0 mm 0.30 in7.6 mm
08:00 PM 23.5°F-4.7°C 23.3°F-4.8°C 99% Calm Calm -- 29.52 in999.7 mb - 0.00 in0.0 mm 0.30 in7.6 mm
09:00 PM 24.3°F-4.3°C 24.1°F-4.4°C 99% Calm Calm -- 29.52 in999.7 mb - 0.00 in0.0 mm 0.30 in7.6 mm
10:00 PM 22.8°F-5.1°C 12.4°F-10.9°C 64% Calm Calm -- 29.52 in999.7 mb - 0.00 in0.0 mm 0.30 in7.6 mm
11:00 PM 21.0°F-6.1°C 20.8°F-6.2°C 99% Calm Calm -- 29.53 in1000.0 mb - 0.00 in0.0 mm 0.30 in7.6 mm